sensor_id;sensor_type;location;lat;lon;timestamp;P1;durP1;ratioP1;P2;durP2;ratioP2
8252;SDS011;61313;48.396;10.008;2023-04-16T00:00:00;6.40;;;2.70;;
8252;SDS011;61313;48.396;10.008;2023-04-16T00:02:28;4.73;;;2.60;;
8252;SDS011;61313;48.396;10.008;2023-04-16T00:04:53;11.43;;;3.40;;
8252;SDS011;61313;48.396;10.008;2023-04-16T00:07:18;4.20;;;2.57;;
8252;SDS011;61313;48.396;10.008;2023-04-16T00:09:44;5.37;;;3.00;;
8252;SDS011;61313;48.396;10.008;2023-04-16T00:12:10;3.43;;;2.93;;
8252;SDS011;61313;48.396;10.008;2023-04-16T00:14:36;3.00;;;2.70;;
8252;SDS011;61313;48.396;10.008;2023-04-16T00:17:01;3.23;;;2.93;;
8252;SDS011;61313;48.396;10.008;2023-04-16T00:19:27;3.40;;;3.00;;
8252;SDS011;61313;48.396;10.008;2023-04-16T00:21:52;3.10;;;2.80;;
8252;SDS011;61313;48.396;10.008;2023-04-16T00:24:18;3.40;;;2.90;;
8252;SDS011;61313;48.396;10.008;2023-04-16T00:26:43;3.27;;;2.97;;
8252;SDS011;61313;48.396;10.008;2023-04-16T00:29:10;4.20;;;2.97;;
8252;SDS011;61313;48.396;10.008;2023-04-16T00:31:36;6.60;;;3.47;;
8252;SDS011;61313;48.396;10.008;2023-04-16T00:34:02;2.70;;;2.50;;
8252;SDS011;61313;48.396;10.008;2023-04-16T00:36:27;4.97;;;2.60;;
8252;SDS011;61313;48.396;10.008;2023-04-16T00:38:53;3.63;;;2.53;;
8252;SDS011;61313;48.396;10.008;2023-04-16T00:41:20;3.40;;;3.10;;
8252;SDS011;61313;48.396;10.008;2023-04-16T00:43:47;4.80;;;3.33;;
8252;SDS011;61313;48.396;10.008;2023-04-16T00:46:13;3.40;;;3.10;;
8252;SDS011;61313;48.396;10.008;2023-04-16T00:48:40;4.20;;;3.17;;
8252;SDS011;61313;48.396;10.008;2023-04-16T00:51:07;3.13;;;2.93;;
8252;SDS011;61313;48.396;10.008;2023-04-16T00:53:34;5.73;;;4.10;;
8252;SDS011;61313;48.396;10.008;2023-04-16T00:56:04;3.63;;;3.33;;
8252;SDS011;61313;48.396;10.008;2023-04-16T00:58:31;4.00;;;3.40;;
8252;SDS011;61313;48.396;10.008;2023-04-16T01:00:58;4.37;;;3.80;;
8252;SDS011;61313;48.396;10.008;2023-04-16T01:03:24;4.43;;;4.03;;
8252;SDS011;61313;48.396;10.008;2023-04-16T01:06:01;6.73;;;4.13;;
8252;SDS011;61313;48.396;10.008;2023-04-16T01:08:27;4.30;;;3.90;;
8252;SDS011;61313;48.396;10.008;2023-04-16T01:10:52;4.10;;;3.70;;
8252;SDS011;61313;48.396;10.008;2023-04-16T01:13:17;4.10;;;3.70;;
8252;SDS011;61313;48.396;10.008;2023-04-16T01:15:43;3.83;;;3.53;;
8252;SDS011;61313;48.396;10.008;2023-04-16T01:18:12;5.00;;;4.60;;
8252;SDS011;61313;48.396;10.008;2023-04-16T01:20:41;4.77;;;4.23;;
8252;SDS011;61313;48.396;10.008;2023-04-16T01:23:06;5.10;;;4.60;;
8252;SDS011;61313;48.396;10.008;2023-04-16T01:25:32;4.57;;;4.17;;
8252;SDS011;61313;48.396;10.008;2023-04-16T01:27:57;4.13;;;3.73;;
8252;SDS011;61313;48.396;10.008;2023-04-16T01:30:23;4.97;;;4.57;;
8252;SDS011;61313;48.396;10.008;2023-04-16T01:32:49;4.53;;;4.13;;
8252;SDS011;61313;48.396;10.008;2023-04-16T01:35:14;4.67;;;4.17;;
8252;SDS011;61313;48.396;10.008;2023-04-16T01:37:42;5.73;;;5.13;;
8252;SDS011;61313;48.396;10.008;2023-04-16T01:40:07;5.13;;;4.63;;
8252;SDS011;61313;48.396;10.008;2023-04-16T01:42:33;6.30;;;3.87;;
8252;SDS011;61313;48.396;10.008;2023-04-16T01:45:00;4.47;;;3.90;;
8252;SDS011;61313;48.396;10.008;2023-04-16T01:47:26;3.93;;;3.63;;
8252;SDS011;61313;48.396;10.008;2023-04-16T01:49:51;3.67;;;3.30;;
8252;SDS011;61313;48.396;10.008;2023-04-16T01:52:16;4.10;;;3.40;;
8252;SDS011;61313;48.396;10.008;2023-04-16T01:54:42;4.30;;;3.70;;
8252;SDS011;61313;48.396;10.008;2023-04-16T01:57:08;4.33;;;3.90;;
8252;SDS011;61313;48.396;10.008;2023-04-16T01:59:33;5.00;;;4.27;;
8252;SDS011;61313;48.396;10.008;2023-04-16T02:02:08;4.90;;;4.40;;
8252;SDS011;61313;48.396;10.008;2023-04-16T02:04:36;4.53;;;4.13;;
8252;SDS011;61313;48.396;10.008;2023-04-16T02:07:02;4.30;;;3.90;;
8252;SDS011;61313;48.396;10.008;2023-04-16T02:09:29;4.87;;;4.37;;
8252;SDS011;61313;48.396;10.008;2023-04-16T02:11:54;5.23;;;4.67;;
8252;SDS011;61313;48.396;10.008;2023-04-16T02:14:19;5.20;;;4.70;;
8252;SDS011;61313;48.396;10.008;2023-04-16T02:16:46;5.70;;;4.67;;
8252;SDS011;61313;48.396;10.008;2023-04-16T02:19:12;9.00;;;4.57;;
8252;SDS011;61313;48.396;10.008;2023-04-16T02:21:37;4.50;;;3.90;;
8252;SDS011;61313;48.396;10.008;2023-04-16T02:24:03;4.80;;;4.40;;
8252;SDS011;61313;48.396;10.008;2023-04-16T02:26:28;5.80;;;5.20;;
8252;SDS011;61313;48.396;10.008;2023-04-16T02:28:54;6.03;;;4.57;;
8252;SDS011;61313;48.396;10.008;2023-04-16T02:31:19;4.90;;;4.50;;
8252;SDS011;61313;48.396;10.008;2023-04-16T02:33:46;5.43;;;4.93;;
8252;SDS011;61313;48.396;10.008;2023-04-16T02:36:11;5.70;;;5.00;;
8252;SDS011;61313;48.396;10.008;2023-04-16T02:38:37;5.03;;;4.63;;
8252;SDS011;61313;48.396;10.008;2023-04-16T02:41:02;5.20;;;4.70;;
8252;SDS011;61313;48.396;10.008;2023-04-16T02:43:28;7.37;;;5.83;;
8252;SDS011;61313;48.396;10.008;2023-04-16T02:45:53;7.90;;;7.13;;
8252;SDS011;61313;48.396;10.008;2023-04-16T02:48:19;6.90;;;6.20;;
8252;SDS011;61313;48.396;10.008;2023-04-16T02:50:44;6.27;;;5.60;;
8252;SDS011;61313;48.396;10.008;2023-04-16T02:53:10;8.43;;;6.47;;
8252;SDS011;61313;48.396;10.008;2023-04-16T02:55:35;6.73;;;5.23;;
8252;SDS011;61313;48.396;10.008;2023-04-16T02:58:00;5.50;;;5.00;;
8252;SDS011;61313;48.396;10.008;2023-04-16T03:00:26;5.67;;;5.07;;
8252;SDS011;61313;48.396;10.008;2023-04-16T03:02:51;6.40;;;5.30;;
8252;SDS011;61313;48.396;10.008;2023-04-16T03:05:17;5.07;;;4.63;;
8252;SDS011;61313;48.396;10.008;2023-04-16T03:07:42;6.50;;;5.13;;
8252;SDS011;61313;48.396;10.008;2023-04-16T03:10:08;7.80;;;4.80;;
8252;SDS011;61313;48.396;10.008;2023-04-16T03:12:35;6.80;;;5.63;;
8252;SDS011;61313;48.396;10.008;2023-04-16T03:15:01;5.40;;;4.90;;
8252;SDS011;61313;48.396;10.008;2023-04-16T03:17:27;7.83;;;6.20;;
8252;SDS011;61313;48.396;10.008;2023-04-16T03:19:52;6.90;;;5.60;;
8252;SDS011;61313;48.396;10.008;2023-04-16T03:22:18;5.60;;;5.10;;
8252;SDS011;61313;48.396;10.008;2023-04-16T03:24:43;7.60;;;4.90;;
8252;SDS011;61313;48.396;10.008;2023-04-16T03:27:09;4.70;;;4.30;;
8252;SDS011;61313;48.396;10.008;2023-04-16T03:29:37;5.33;;;4.83;;
8252;SDS011;61313;48.396;10.008;2023-04-16T03:32:03;8.77;;;5.10;;
8252;SDS011;61313;48.396;10.008;2023-04-16T03:34:28;4.90;;;4.50;;
8252;SDS011;61313;48.396;10.008;2023-04-16T03:36:54;6.00;;;5.40;;
8252;SDS011;61313;48.396;10.008;2023-04-16T03:39:19;5.80;;;5.30;;
8252;SDS011;61313;48.396;10.008;2023-04-16T03:41:45;5.10;;;4.50;;
8252;SDS011;61313;48.396;10.008;2023-04-16T03:44:10;6.97;;;4.80;;
8252;SDS011;61313;48.396;10.008;2023-04-16T03:46:36;4.27;;;3.87;;
8252;SDS011;61313;48.396;10.008;2023-04-16T03:49:01;4.40;;;4.00;;
8252;SDS011;61313;48.396;10.008;2023-04-16T03:51:27;4.33;;;3.53;;
8252;SDS011;61313;48.396;10.008;2023-04-16T03:53:52;4.13;;;3.60;;
8252;SDS011;61313;48.396;10.008;2023-04-16T03:56:18;5.50;;;4.20;;
8252;SDS011;61313;48.396;10.008;2023-04-16T03:58:43;8.67;;;6.03;;
8252;SDS011;61313;48.396;10.008;2023-04-16T04:01:08;4.10;;;3.70;;
8252;SDS011;61313;48.396;10.008;2023-04-16T04:03:34;5.60;;;4.50;;
8252;SDS011;61313;48.396;10.008;2023-04-16T04:05:59;4.50;;;4.10;;
8252;SDS011;61313;48.396;10.008;2023-04-16T04:08:25;4.20;;;3.80;;
8252;SDS011;61313;48.396;10.008;2023-04-16T04:10:50;5.03;;;4.40;;
8252;SDS011;61313;48.396;10.008;2023-04-16T04:13:16;5.53;;;4.70;;
8252;SDS011;61313;48.396;10.008;2023-04-16T04:15:41;11.20;;;5.00;;
8252;SDS011;61313;48.396;10.008;2023-04-16T04:18:08;10.87;;;4.50;;
8252;SDS011;61313;48.396;10.008;2023-04-16T04:20:33;6.80;;;4.43;;
8252;SDS011;61313;48.396;10.008;2023-04-16T04:23:04;6.90;;;5.07;;
8252;SDS011;61313;48.396;10.008;2023-04-16T04:25:29;7.30;;;5.70;;
8252;SDS011;61313;48.396;10.008;2023-04-16T04:27:54;8.03;;;5.20;;
8252;SDS011;61313;48.396;10.008;2023-04-16T04:30:20;7.07;;;5.70;;
8252;SDS011;61313;48.396;10.008;2023-04-16T04:32:45;5.23;;;4.73;;
8252;SDS011;61313;48.396;10.008;2023-04-16T04:35:11;7.77;;;5.60;;
8252;SDS011;61313;48.396;10.008;2023-04-16T04:37:36;6.07;;;5.47;;
8252;SDS011;61313;48.396;10.008;2023-04-16T04:40:02;6.03;;;5.10;;
8252;SDS011;61313;48.396;10.008;2023-04-16T04:42:27;5.93;;;5.20;;
8252;SDS011;61313;48.396;10.008;2023-04-16T04:44:52;7.37;;;5.20;;
8252;SDS011;61313;48.396;10.008;2023-04-16T04:47:18;6.17;;;5.20;;
8252;SDS011;61313;48.396;10.008;2023-04-16T04:49:43;5.47;;;4.77;;
8252;SDS011;61313;48.396;10.008;2023-04-16T04:52:09;5.63;;;4.23;;
8252;SDS011;61313;48.396;10.008;2023-04-16T04:54:35;4.70;;;4.30;;
8252;SDS011;61313;48.396;10.008;2023-04-16T04:57:01;5.80;;;5.20;;
8252;SDS011;61313;48.396;10.008;2023-04-16T04:59:26;7.67;;;5.70;;
8252;SDS011;61313;48.396;10.008;2023-04-16T05:01:52;5.93;;;4.70;;
8252;SDS011;61313;48.396;10.008;2023-04-16T05:04:17;5.10;;;4.23;;
8252;SDS011;61313;48.396;10.008;2023-04-16T05:06:43;4.87;;;4.47;;
8252;SDS011;61313;48.396;10.008;2023-04-16T05:09:09;6.10;;;5.50;;
8252;SDS011;61313;48.396;10.008;2023-04-16T05:11:38;5.50;;;4.43;;
8252;SDS011;61313;48.396;10.008;2023-04-16T05:14:05;9.23;;;4.30;;
8252;SDS011;61313;48.396;10.008;2023-04-16T05:16:30;6.73;;;4.50;;
8252;SDS011;61313;48.396;10.008;2023-04-16T05:18:56;15.47;;;4.93;;
8252;SDS011;61313;48.396;10.008;2023-04-16T05:21:22;8.10;;;4.63;;
8252;SDS011;61313;48.396;10.008;2023-04-16T05:23:47;10.93;;;3.90;;
8252;SDS011;61313;48.396;10.008;2023-04-16T05:26:13;5.77;;;3.73;;
8252;SDS011;61313;48.396;10.008;2023-04-16T05:28:38;6.50;;;3.50;;
8252;SDS011;61313;48.396;10.008;2023-04-16T05:31:04;4.30;;;3.53;;
8252;SDS011;61313;48.396;10.008;2023-04-16T05:33:29;4.30;;;3.50;;
8252;SDS011;61313;48.396;10.008;2023-04-16T05:35:54;3.10;;;2.80;;
8252;SDS011;61313;48.396;10.008;2023-04-16T05:38:20;4.40;;;2.80;;
8252;SDS011;61313;48.396;10.008;2023-04-16T05:40:45;19.37;;;4.83;;
8252;SDS011;61313;48.396;10.008;2023-04-16T05:43:11;5.67;;;2.27;;
8252;SDS011;61313;48.396;10.008;2023-04-16T05:45:36;13.97;;;4.20;;
8252;SDS011;61313;48.396;10.008;2023-04-16T05:48:08;5.03;;;2.60;;
8252;SDS011;61313;48.396;10.008;2023-04-16T05:50:34;22.37;;;4.17;;
8252;SDS011;61313;48.396;10.008;2023-04-16T05:53:01;10.53;;;2.60;;
8252;SDS011;61313;48.396;10.008;2023-04-16T05:55:27;10.10;;;2.30;;
8252;SDS011;61313;48.396;10.008;2023-04-16T05:57:52;2.73;;;1.97;;
8252;SDS011;61313;48.396;10.008;2023-04-16T06:00:17;5.17;;;2.20;;
8252;SDS011;61313;48.396;10.008;2023-04-16T06:02:43;3.10;;;1.83;;
8252;SDS011;61313;48.396;10.008;2023-04-16T06:05:08;7.00;;;2.10;;
8252;SDS011;61313;48.396;10.008;2023-04-16T06:07:34;3.20;;;2.20;;
8252;SDS011;61313;48.396;10.008;2023-04-16T06:09:59;4.50;;;1.80;;
8252;SDS011;61313;48.396;10.008;2023-04-16T06:12:25;2.10;;;1.90;;
8252;SDS011;61313;48.396;10.008;2023-04-16T06:14:51;4.73;;;2.00;;
8252;SDS011;61313;48.396;10.008;2023-04-16T06:17:16;11.30;;;2.43;;
8252;SDS011;61313;48.396;10.008;2023-04-16T06:19:42;7.53;;;2.33;;
8252;SDS011;61313;48.396;10.008;2023-04-16T06:22:08;11.83;;;2.70;;
8252;SDS011;61313;48.396;10.008;2023-04-16T06:24:34;6.73;;;2.83;;
8252;SDS011;61313;48.396;10.008;2023-04-16T06:26:59;7.97;;;2.20;;
8252;SDS011;61313;48.396;10.008;2023-04-16T06:29:25;10.67;;;2.80;;
8252;SDS011;61313;48.396;10.008;2023-04-16T06:31:50;2.37;;;1.93;;
8252;SDS011;61313;48.396;10.008;2023-04-16T06:34:16;6.17;;;2.10;;
8252;SDS011;61313;48.396;10.008;2023-04-16T06:36:41;4.13;;;3.00;;
8252;SDS011;61313;48.396;10.008;2023-04-16T06:39:07;2.20;;;1.80;;
8252;SDS011;61313;48.396;10.008;2023-04-16T06:41:32;2.30;;;1.80;;
8252;SDS011;61313;48.396;10.008;2023-04-16T06:43:57;2.70;;;2.10;;
8252;SDS011;61313;48.396;10.008;2023-04-16T06:46:23;2.90;;;1.97;;
8252;SDS011;61313;48.396;10.008;2023-04-16T06:48:48;8.03;;;2.00;;
8252;SDS011;61313;48.396;10.008;2023-04-16T06:51:14;3.37;;;1.80;;
8252;SDS011;61313;48.396;10.008;2023-04-16T06:53:39;4.33;;;2.00;;
8252;SDS011;61313;48.396;10.008;2023-04-16T06:56:06;13.03;;;2.70;;
8252;SDS011;61313;48.396;10.008;2023-04-16T06:58:32;3.83;;;2.37;;
8252;SDS011;61313;48.396;10.008;2023-04-16T07:00:57;5.60;;;1.90;;
8252;SDS011;61313;48.396;10.008;2023-04-16T07:03:23;9.33;;;2.43;;
8252;SDS011;61313;48.396;10.008;2023-04-16T07:05:48;3.10;;;1.70;;
8252;SDS011;61313;48.396;10.008;2023-04-16T07:08:14;3.20;;;1.50;;
8252;SDS011;61313;48.396;10.008;2023-04-16T07:10:39;5.17;;;1.80;;
8252;SDS011;61313;48.396;10.008;2023-04-16T07:13:04;4.73;;;1.90;;
8252;SDS011;61313;48.396;10.008;2023-04-16T07:15:30;10.43;;;2.83;;
8252;SDS011;61313;48.396;10.008;2023-04-16T07:17:55;3.27;;;1.77;;
8252;SDS011;61313;48.396;10.008;2023-04-16T07:20:21;2.07;;;1.67;;
8252;SDS011;61313;48.396;10.008;2023-04-16T07:22:46;3.73;;;2.17;;
8252;SDS011;61313;48.396;10.008;2023-04-16T07:25:12;5.40;;;1.93;;
8252;SDS011;61313;48.396;10.008;2023-04-16T07:27:37;18.60;;;2.40;;
8252;SDS011;61313;48.396;10.008;2023-04-16T07:30:03;6.20;;;1.93;;
8252;SDS011;61313;48.396;10.008;2023-04-16T07:32:29;2.37;;;1.60;;
8252;SDS011;61313;48.396;10.008;2023-04-16T07:34:55;7.83;;;2.40;;
8252;SDS011;61313;48.396;10.008;2023-04-16T07:37:20;8.53;;;2.80;;
8252;SDS011;61313;48.396;10.008;2023-04-16T07:39:46;9.80;;;2.10;;
8252;SDS011;61313;48.396;10.008;2023-04-16T07:42:12;4.77;;;1.73;;
8252;SDS011;61313;48.396;10.008;2023-04-16T07:44:38;4.43;;;1.80;;
8252;SDS011;61313;48.396;10.008;2023-04-16T07:47:03;3.00;;;1.67;;
8252;SDS011;61313;48.396;10.008;2023-04-16T07:49:28;2.80;;;1.83;;
8252;SDS011;61313;48.396;10.008;2023-04-16T07:51:54;2.60;;;1.30;;
8252;SDS011;61313;48.396;10.008;2023-04-16T07:54:19;3.33;;;1.97;;
8252;SDS011;61313;48.396;10.008;2023-04-16T07:56:45;5.80;;;1.60;;
8252;SDS011;61313;48.396;10.008;2023-04-16T07:59:10;6.30;;;1.67;;
8252;SDS011;61313;48.396;10.008;2023-04-16T08:01:35;3.60;;;2.00;;
8252;SDS011;61313;48.396;10.008;2023-04-16T08:04:04;11.90;;;2.50;;
8252;SDS011;61313;48.396;10.008;2023-04-16T08:06:30;9.13;;;2.43;;
8252;SDS011;61313;48.396;10.008;2023-04-16T08:08:55;5.00;;;2.20;;
8252;SDS011;61313;48.396;10.008;2023-04-16T08:11:21;4.00;;;2.03;;
8252;SDS011;61313;48.396;10.008;2023-04-16T08:13:46;5.00;;;1.83;;
8252;SDS011;61313;48.396;10.008;2023-04-16T08:16:11;10.73;;;2.63;;
8252;SDS011;61313;48.396;10.008;2023-04-16T08:18:37;7.70;;;2.20;;
8252;SDS011;61313;48.396;10.008;2023-04-16T08:21:02;2.83;;;2.10;;
8252;SDS011;61313;48.396;10.008;2023-04-16T08:23:28;2.50;;;1.90;;
8252;SDS011;61313;48.396;10.008;2023-04-16T08:25:53;2.17;;;1.80;;
8252;SDS011;61313;48.396;10.008;2023-04-16T08:28:19;13.03;;;3.27;;
8252;SDS011;61313;48.396;10.008;2023-04-16T08:30:44;5.73;;;2.50;;
8252;SDS011;61313;48.396;10.008;2023-04-16T08:33:10;1.97;;;1.53;;
8252;SDS011;61313;48.396;10.008;2023-04-16T08:35:38;3.57;;;2.03;;
8252;SDS011;61313;48.396;10.008;2023-04-16T08:38:07;10.43;;;2.00;;
8252;SDS011;61313;48.396;10.008;2023-04-16T08:40:33;3.50;;;1.73;;
8252;SDS011;61313;48.396;10.008;2023-04-16T08:43:01;2.57;;;1.80;;
8252;SDS011;61313;48.396;10.008;2023-04-16T08:45:33;2.70;;;2.13;;
8252;SDS011;61313;48.396;10.008;2023-04-16T08:47:59;9.73;;;2.70;;
8252;SDS011;61313;48.396;10.008;2023-04-16T08:50:25;4.10;;;1.60;;
8252;SDS011;61313;48.396;10.008;2023-04-16T08:52:52;3.73;;;1.80;;
8252;SDS011;61313;48.396;10.008;2023-04-16T08:55:25;4.83;;;2.30;;
8252;SDS011;61313;48.396;10.008;2023-04-16T08:57:57;10.23;;;2.80;;
8252;SDS011;61313;48.396;10.008;2023-04-16T09:00:24;5.83;;;2.20;;
8252;SDS011;61313;48.396;10.008;2023-04-16T09:02:50;12.00;;;3.27;;
8252;SDS011;61313;48.396;10.008;2023-04-16T09:05:17;7.43;;;2.57;;
8252;SDS011;61313;48.396;10.008;2023-04-16T09:07:45;4.90;;;2.27;;
8252;SDS011;61313;48.396;10.008;2023-04-16T09:10:11;4.30;;;2.13;;
8252;SDS011;61313;48.396;10.008;2023-04-16T09:12:39;3.90;;;3.33;;
8252;SDS011;61313;48.396;10.008;2023-04-16T09:15:06;3.90;;;2.57;;
8252;SDS011;61313;48.396;10.008;2023-04-16T09:17:34;5.10;;;3.00;;
8252;SDS011;61313;48.396;10.008;2023-04-16T09:20:00;2.40;;;1.87;;
8252;SDS011;61313;48.396;10.008;2023-04-16T09:22:25;4.80;;;2.07;;
8252;SDS011;61313;48.396;10.008;2023-04-16T09:24:51;7.83;;;2.97;;
8252;SDS011;61313;48.396;10.008;2023-04-16T09:27:16;4.27;;;2.77;;
8252;SDS011;61313;48.396;10.008;2023-04-16T09:29:42;3.47;;;2.20;;
8252;SDS011;61313;48.396;10.008;2023-04-16T09:32:08;3.77;;;2.20;;
8252;SDS011;61313;48.396;10.008;2023-04-16T09:34:52;9.87;;;2.70;;
8252;SDS011;61313;48.396;10.008;2023-04-16T09:37:18;7.23;;;2.53;;
8252;SDS011;61313;48.396;10.008;2023-04-16T09:39:44;3.87;;;2.67;;
8252;SDS011;61313;48.396;10.008;2023-04-16T09:42:20;3.00;;;2.03;;
8252;SDS011;61313;48.396;10.008;2023-04-16T09:44:48;2.03;;;1.77;;
8252;SDS011;61313;48.396;10.008;2023-04-16T09:47:13;7.23;;;3.20;;
8252;SDS011;61313;48.396;10.008;2023-04-16T09:49:41;7.57;;;2.60;;
8252;SDS011;61313;48.396;10.008;2023-04-16T09:52:14;3.07;;;2.70;;
8252;SDS011;61313;48.396;10.008;2023-04-16T09:54:52;2.83;;;2.20;;
8252;SDS011;61313;48.396;10.008;2023-04-16T10:00:22;6.00;;;3.40;;
8252;SDS011;61313;48.396;10.008;2023-04-16T10:02:47;7.03;;;3.50;;
8252;SDS011;61313;48.396;10.008;2023-04-16T10:05:13;4.13;;;2.80;;
8252;SDS011;61313;48.396;10.008;2023-04-16T10:07:42;6.53;;;4.43;;
8252;SDS011;61313;48.396;10.008;2023-04-16T10:10:08;3.30;;;3.00;;
8252;SDS011;61313;48.396;10.008;2023-04-16T10:12:34;3.93;;;3.00;;
8252;SDS011;61313;48.396;10.008;2023-04-16T10:15:00;4.17;;;3.77;;
8252;SDS011;61313;48.396;10.008;2023-04-16T10:17:25;3.03;;;2.50;;
8252;SDS011;61313;48.396;10.008;2023-04-16T10:19:53;2.97;;;2.43;;
8252;SDS011;61313;48.396;10.008;2023-04-16T10:22:20;3.73;;;3.20;;
8252;SDS011;61313;48.396;10.008;2023-04-16T10:24:45;17.53;;;4.40;;
8252;SDS011;61313;48.396;10.008;2023-04-16T10:27:11;15.83;;;3.90;;
8252;SDS011;61313;48.396;10.008;2023-04-16T10:29:37;7.33;;;3.13;;
8252;SDS011;61313;48.396;10.008;2023-04-16T10:32:03;3.53;;;3.10;;
8252;SDS011;61313;48.396;10.008;2023-04-16T10:34:30;2.97;;;2.67;;
8252;SDS011;61313;48.396;10.008;2023-04-16T10:36:56;4.93;;;2.80;;
8252;SDS011;61313;48.396;10.008;2023-04-16T10:39:22;3.97;;;3.03;;
8252;SDS011;61313;48.396;10.008;2023-04-16T10:41:49;5.40;;;2.20;;
8252;SDS011;61313;48.396;10.008;2023-04-16T10:44:15;5.00;;;2.60;;
8252;SDS011;61313;48.396;10.008;2023-04-16T10:46:43;22.37;;;4.00;;
8252;SDS011;61313;48.396;10.008;2023-04-16T10:49:15;4.40;;;2.40;;
8252;SDS011;61313;48.396;10.008;2023-04-16T10:52:29;6.13;;;2.70;;
8252;SDS011;61313;48.396;10.008;2023-04-16T10:54:37;3.77;;;2.07;;
8252;SDS011;61313;48.396;10.008;2023-04-16T10:57:05;5.93;;;2.53;;
8252;SDS011;61313;48.396;10.008;2023-04-16T10:59:34;8.30;;;2.90;;
8252;SDS011;61313;48.396;10.008;2023-04-16T11:02:03;11.73;;;3.73;;
8252;SDS011;61313;48.396;10.008;2023-04-16T11:12:15;23.93;;;3.37;;
8252;SDS011;61313;48.396;10.008;2023-04-16T11:14:58;11.97;;;4.70;;
8252;SDS011;61313;48.396;10.008;2023-04-16T11:17:41;25.70;;;4.97;;
8252;SDS011;61313;48.396;10.008;2023-04-16T11:20:09;6.07;;;2.23;;
8252;SDS011;61313;48.396;10.008;2023-04-16T11:22:40;7.40;;;3.40;;
8252;SDS011;61313;48.396;10.008;2023-04-16T11:25:06;9.40;;;3.00;;
8252;SDS011;61313;48.396;10.008;2023-04-16T11:27:32;9.10;;;3.53;;
8252;SDS011;61313;48.396;10.008;2023-04-16T11:30:01;4.67;;;2.30;;
8252;SDS011;61313;48.396;10.008;2023-04-16T11:32:31;13.00;;;3.13;;
8252;SDS011;61313;48.396;10.008;2023-04-16T11:35:03;15.70;;;5.93;;
8252;SDS011;61313;48.396;10.008;2023-04-16T11:37:36;46.27;;;10.13;;
8252;SDS011;61313;48.396;10.008;2023-04-16T11:40:05;16.83;;;6.03;;
8252;SDS011;61313;48.396;10.008;2023-04-16T11:42:35;7.00;;;2.87;;
8252;SDS011;61313;48.396;10.008;2023-04-16T11:45:02;6.67;;;3.40;;
8252;SDS011;61313;48.396;10.008;2023-04-16T11:47:29;26.73;;;5.67;;
8252;SDS011;61313;48.396;10.008;2023-04-16T11:49:55;7.67;;;3.33;;
8252;SDS011;61313;48.396;10.008;2023-04-16T11:52:25;9.73;;;3.37;;
8252;SDS011;61313;48.396;10.008;2023-04-16T11:54:52;17.80;;;4.40;;
8252;SDS011;61313;48.396;10.008;2023-04-16T11:57:25;22.87;;;5.07;;
8252;SDS011;61313;48.396;10.008;2023-04-16T11:59:52;14.70;;;3.50;;
8252;SDS011;61313;48.396;10.008;2023-04-16T12:02:32;6.30;;;3.37;;
8252;SDS011;61313;48.396;10.008;2023-04-16T12:05:06;6.30;;;3.30;;
8252;SDS011;61313;48.396;10.008;2023-04-16T12:07:53;4.37;;;3.23;;
8252;SDS011;61313;48.396;10.008;2023-04-16T12:10:19;12.00;;;4.63;;
8252;SDS011;61313;48.396;10.008;2023-04-16T12:12:44;9.03;;;4.87;;
8252;SDS011;61313;48.396;10.008;2023-04-16T12:15:10;7.20;;;3.60;;
8252;SDS011;61313;48.396;10.008;2023-04-16T12:17:36;5.33;;;3.87;;
8252;SDS011;61313;48.396;10.008;2023-04-16T12:20:03;13.97;;;5.10;;
8252;SDS011;61313;48.396;10.008;2023-04-16T12:22:40;12.90;;;4.67;;
8252;SDS011;61313;48.396;10.008;2023-04-16T12:25:13;79.37;;;10.30;;
8252;SDS011;61313;48.396;10.008;2023-04-16T12:30:10;37.83;;;8.07;;
8252;SDS011;61313;48.396;10.008;2023-04-16T12:32:36;12.43;;;4.43;;
8252;SDS011;61313;48.396;10.008;2023-04-16T12:35:01;9.30;;;5.87;;
8252;SDS011;61313;48.396;10.008;2023-04-16T12:37:27;6.13;;;3.80;;
8252;SDS011;61313;48.396;10.008;2023-04-16T12:39:52;16.57;;;4.67;;
8252;SDS011;61313;48.396;10.008;2023-04-16T12:42:19;10.63;;;4.97;;
8252;SDS011;61313;48.396;10.008;2023-04-16T12:44:45;7.70;;;4.20;;
8252;SDS011;61313;48.396;10.008;2023-04-16T12:47:10;15.10;;;4.30;;
8252;SDS011;61313;48.396;10.008;2023-04-16T12:49:36;5.07;;;3.70;;
8252;SDS011;61313;48.396;10.008;2023-04-16T12:52:02;29.10;;;5.80;;
8252;SDS011;61313;48.396;10.008;2023-04-16T12:54:27;10.13;;;3.70;;
8252;SDS011;61313;48.396;10.008;2023-04-16T12:56:55;24.33;;;4.50;;
8252;SDS011;61313;48.396;10.008;2023-04-16T12:59:21;33.57;;;7.27;;
8252;SDS011;61313;48.396;10.008;2023-04-16T13:01:47;7.70;;;4.00;;
8252;SDS011;61313;48.396;10.008;2023-04-16T13:04:12;10.90;;;3.20;;
8252;SDS011;61313;48.396;10.008;2023-04-16T13:06:37;5.67;;;2.70;;
8252;SDS011;61313;48.396;10.008;2023-04-16T13:09:04;3.63;;;2.70;;
8252;SDS011;61313;48.396;10.008;2023-04-16T13:11:29;11.93;;;5.20;;
8252;SDS011;61313;48.396;10.008;2023-04-16T13:13:55;4.47;;;3.10;;
8252;SDS011;61313;48.396;10.008;2023-04-16T13:16:21;19.27;;;3.97;;
8252;SDS011;61313;48.396;10.008;2023-04-16T13:18:46;17.80;;;4.60;;
8252;SDS011;61313;48.396;10.008;2023-04-16T13:21:12;10.03;;;3.30;;
8252;SDS011;61313;48.396;10.008;2023-04-16T13:23:37;5.20;;;3.63;;
8252;SDS011;61313;48.396;10.008;2023-04-16T13:26:03;29.13;;;5.47;;
8252;SDS011;61313;48.396;10.008;2023-04-16T13:28:28;9.80;;;3.17;;
8252;SDS011;61313;48.396;10.008;2023-04-16T13:30:54;7.27;;;3.30;;
8252;SDS011;61313;48.396;10.008;2023-04-16T13:33:20;8.00;;;3.70;;
8252;SDS011;61313;48.396;10.008;2023-04-16T13:35:46;11.30;;;3.80;;
8252;SDS011;61313;48.396;10.008;2023-04-16T13:38:13;10.67;;;2.77;;
8252;SDS011;61313;48.396;10.008;2023-04-16T13:40:38;13.17;;;3.27;;
8252;SDS011;61313;48.396;10.008;2023-04-16T13:43:04;10.77;;;2.97;;
8252;SDS011;61313;48.396;10.008;2023-04-16T13:45:29;5.83;;;2.70;;
8252;SDS011;61313;48.396;10.008;2023-04-16T13:47:55;6.90;;;2.93;;
8252;SDS011;61313;48.396;10.008;2023-04-16T13:50:20;5.23;;;2.63;;
8252;SDS011;61313;48.396;10.008;2023-04-16T13:52:45;10.13;;;4.50;;
8252;SDS011;61313;48.396;10.008;2023-04-16T13:55:11;12.77;;;2.83;;
8252;SDS011;61313;48.396;10.008;2023-04-16T13:57:43;8.07;;;3.83;;
8252;SDS011;61313;48.396;10.008;2023-04-16T14:00:11;6.37;;;2.60;;
8252;SDS011;61313;48.396;10.008;2023-04-16T14:02:38;4.10;;;2.53;;
8252;SDS011;61313;48.396;10.008;2023-04-16T14:05:04;2.70;;;2.30;;
8252;SDS011;61313;48.396;10.008;2023-04-16T14:07:30;4.07;;;2.87;;
8252;SDS011;61313;48.396;10.008;2023-04-16T14:09:56;2.77;;;2.10;;
8252;SDS011;61313;48.396;10.008;2023-04-16T14:12:22;3.33;;;2.10;;
8252;SDS011;61313;48.396;10.008;2023-04-16T14:14:47;17.33;;;3.07;;
8252;SDS011;61313;48.396;10.008;2023-04-16T14:17:13;27.07;;;5.70;;
8252;SDS011;61313;48.396;10.008;2023-04-16T14:19:39;7.70;;;2.77;;
8252;SDS011;61313;48.396;10.008;2023-04-16T14:22:04;18.00;;;3.73;;
8252;SDS011;61313;48.396;10.008;2023-04-16T14:24:30;6.17;;;2.30;;
8252;SDS011;61313;48.396;10.008;2023-04-16T14:26:55;9.30;;;3.43;;
8252;SDS011;61313;48.396;10.008;2023-04-16T14:29:21;18.00;;;4.20;;
8252;SDS011;61313;48.396;10.008;2023-04-16T14:31:46;16.27;;;3.13;;
8252;SDS011;61313;48.396;10.008;2023-04-16T14:34:12;9.33;;;2.83;;
8252;SDS011;61313;48.396;10.008;2023-04-16T14:36:37;7.63;;;2.37;;
8252;SDS011;61313;48.396;10.008;2023-04-16T14:39:03;7.00;;;2.10;;
8252;SDS011;61313;48.396;10.008;2023-04-16T14:41:29;9.07;;;2.80;;
8252;SDS011;61313;48.396;10.008;2023-04-16T14:43:54;7.00;;;2.30;;
8252;SDS011;61313;48.396;10.008;2023-04-16T14:46:20;8.87;;;2.60;;
8252;SDS011;61313;48.396;10.008;2023-04-16T14:48:45;9.40;;;2.50;;
8252;SDS011;61313;48.396;10.008;2023-04-16T14:51:11;6.60;;;1.93;;
8252;SDS011;61313;48.396;10.008;2023-04-16T14:53:36;11.23;;;4.03;;